sensor_id;sensor_type;location;lat;lon;timestamp;P1;durP1;ratioP1;P2;durP2;ratioP2
45650;SDS011;31365;48.858;8.530;2023-11-19T00:00:23;1.50;;;1.50;;
45650;SDS011;31365;48.858;8.530;2023-11-19T00:02:52;1.60;;;1.60;;
45650;SDS011;31365;48.858;8.530;2023-11-19T00:05:21;1.70;;;1.70;;
45650;SDS011;31365;48.858;8.530;2023-11-19T00:07:50;1.40;;;1.40;;
45650;SDS011;31365;48.858;8.530;2023-11-19T00:10:19;1.40;;;1.40;;
45650;SDS011;31365;48.858;8.530;2023-11-19T00:12:48;1.60;;;1.50;;
45650;SDS011;31365;48.858;8.530;2023-11-19T00:15:17;1.40;;;1.40;;
45650;SDS011;31365;48.858;8.530;2023-11-19T00:17:46;1.60;;;1.50;;
45650;SDS011;31365;48.858;8.530;2023-11-19T00:20:16;1.70;;;1.60;;
45650;SDS011;31365;48.858;8.530;2023-11-19T00:22:47;1.60;;;1.50;;
45650;SDS011;31365;48.858;8.530;2023-11-19T00:25:18;1.70;;;1.60;;
45650;SDS011;31365;48.858;8.530;2023-11-19T00:27:49;1.70;;;1.60;;
45650;SDS011;31365;48.858;8.530;2023-11-19T00:30:19;2.00;;;1.90;;
45650;SDS011;31365;48.858;8.530;2023-11-19T00:32:48;1.70;;;1.60;;
45650;SDS011;31365;48.858;8.530;2023-11-19T00:35:16;1.80;;;1.70;;
45650;SDS011;31365;48.858;8.530;2023-11-19T00:37:44;1.50;;;1.50;;
45650;SDS011;31365;48.858;8.530;2023-11-19T00:40:16;1.80;;;1.70;;
45650;SDS011;31365;48.858;8.530;2023-11-19T00:42:45;1.50;;;1.50;;
45650;SDS011;31365;48.858;8.530;2023-11-19T00:45:14;1.60;;;1.60;;
45650;SDS011;31365;48.858;8.530;2023-11-19T00:47:42;1.40;;;1.40;;
45650;SDS011;31365;48.858;8.530;2023-11-19T00:50:11;1.50;;;1.40;;
45650;SDS011;31365;48.858;8.530;2023-11-19T00:52:39;1.70;;;1.60;;
45650;SDS011;31365;48.858;8.530;2023-11-19T00:55:08;1.77;;;1.47;;
45650;SDS011;31365;48.858;8.530;2023-11-19T00:57:39;1.33;;;1.33;;
45650;SDS011;31365;48.858;8.530;2023-11-19T01:00:08;1.50;;;1.50;;
45650;SDS011;31365;48.858;8.530;2023-11-19T01:02:46;1.77;;;1.60;;
45650;SDS011;31365;48.858;8.530;2023-11-19T01:05:18;1.60;;;1.50;;
45650;SDS011;31365;48.858;8.530;2023-11-19T01:07:50;1.40;;;1.40;;
45650;SDS011;31365;48.858;8.530;2023-11-19T01:10:21;1.60;;;1.60;;
45650;SDS011;31365;48.858;8.530;2023-11-19T01:12:52;1.50;;;1.47;;
45650;SDS011;31365;48.858;8.530;2023-11-19T01:15:21;1.60;;;1.60;;
45650;SDS011;31365;48.858;8.530;2023-11-19T01:17:50;1.60;;;1.50;;
45650;SDS011;31365;48.858;8.530;2023-11-19T01:20:19;1.50;;;1.50;;
45650;SDS011;31365;48.858;8.530;2023-11-19T01:22:48;1.40;;;1.40;;
45650;SDS011;31365;48.858;8.530;2023-11-19T01:25:16;1.40;;;1.40;;
45650;SDS011;31365;48.858;8.530;2023-11-19T01:27:45;5.03;;;1.60;;
45650;SDS011;31365;48.858;8.530;2023-11-19T01:30:15;1.70;;;1.60;;
45650;SDS011;31365;48.858;8.530;2023-11-19T01:32:44;1.40;;;1.40;;
45650;SDS011;31365;48.858;8.530;2023-11-19T01:35:12;1.50;;;1.50;;
45650;SDS011;31365;48.858;8.530;2023-11-19T01:37:41;1.50;;;1.50;;
45650;SDS011;31365;48.858;8.530;2023-11-19T01:40:10;1.60;;;1.60;;
45650;SDS011;31365;48.858;8.530;2023-11-19T01:42:39;1.80;;;1.70;;
45650;SDS011;31365;48.858;8.530;2023-11-19T01:45:08;1.60;;;1.60;;
45650;SDS011;31365;48.858;8.530;2023-11-19T01:48:11;1.77;;;1.70;;
45650;SDS011;31365;48.858;8.530;2023-11-19T01:50:41;1.53;;;1.50;;
45650;SDS011;31365;48.858;8.530;2023-11-19T01:53:10;1.60;;;1.60;;
45650;SDS011;31365;48.858;8.530;2023-11-19T01:55:38;1.70;;;1.70;;
45650;SDS011;31365;48.858;8.530;2023-11-19T01:58:07;1.90;;;1.80;;
45650;SDS011;31365;48.858;8.530;2023-11-19T02:00:36;1.97;;;1.87;;
45650;SDS011;31365;48.858;8.530;2023-11-19T02:03:05;3.83;;;2.73;;
45650;SDS011;31365;48.858;8.530;2023-11-19T02:05:36;1.77;;;1.67;;
45650;SDS011;31365;48.858;8.530;2023-11-19T02:08:06;1.80;;;1.70;;
45650;SDS011;31365;48.858;8.530;2023-11-19T02:10:35;2.13;;;2.03;;
45650;SDS011;31365;48.858;8.530;2023-11-19T02:13:05;1.80;;;1.77;;
45650;SDS011;31365;48.858;8.530;2023-11-19T02:15:34;1.80;;;1.70;;
45650;SDS011;31365;48.858;8.530;2023-11-19T02:20:50;1.50;;;1.50;;
45650;SDS011;31365;48.858;8.530;2023-11-19T02:23:19;1.57;;;1.57;;
45650;SDS011;31365;48.858;8.530;2023-11-19T02:25:52;1.97;;;1.80;;
45650;SDS011;31365;48.858;8.530;2023-11-19T02:28:30;1.60;;;1.60;;
45650;SDS011;31365;48.858;8.530;2023-11-19T02:30:59;1.50;;;1.50;;
45650;SDS011;31365;48.858;8.530;2023-11-19T02:33:27;1.77;;;1.70;;
45650;SDS011;31365;48.858;8.530;2023-11-19T02:35:55;1.60;;;1.60;;
45650;SDS011;31365;48.858;8.530;2023-11-19T02:38:24;1.70;;;1.60;;
45650;SDS011;31365;48.858;8.530;2023-11-19T02:40:52;1.73;;;1.70;;
45650;SDS011;31365;48.858;8.530;2023-11-19T02:43:23;1.60;;;1.60;;
45650;SDS011;31365;48.858;8.530;2023-11-19T02:45:52;1.60;;;1.60;;
45650;SDS011;31365;48.858;8.530;2023-11-19T02:48:22;1.53;;;1.53;;
45650;SDS011;31365;48.858;8.530;2023-11-19T02:50:50;1.50;;;1.50;;
45650;SDS011;31365;48.858;8.530;2023-11-19T02:53:19;1.73;;;1.70;;
45650;SDS011;31365;48.858;8.530;2023-11-19T02:55:48;1.50;;;1.50;;
45650;SDS011;31365;48.858;8.530;2023-11-19T02:58:16;1.60;;;1.60;;
45650;SDS011;31365;48.858;8.530;2023-11-19T03:00:50;1.60;;;1.50;;
45650;SDS011;31365;48.858;8.530;2023-11-19T03:03:25;1.50;;;1.50;;
45650;SDS011;31365;48.858;8.530;2023-11-19T03:05:57;1.50;;;1.50;;
45650;SDS011;31365;48.858;8.530;2023-11-19T03:08:25;1.60;;;1.50;;
45650;SDS011;31365;48.858;8.530;2023-11-19T03:10:53;1.60;;;1.60;;
45650;SDS011;31365;48.858;8.530;2023-11-19T03:13:21;1.50;;;1.50;;
45650;SDS011;31365;48.858;8.530;2023-11-19T03:15:49;1.70;;;1.60;;
45650;SDS011;31365;48.858;8.530;2023-11-19T03:18:18;1.97;;;1.83;;
45650;SDS011;31365;48.858;8.530;2023-11-19T03:20:48;1.60;;;1.60;;
45650;SDS011;31365;48.858;8.530;2023-11-19T03:23:17;1.60;;;1.60;;
45650;SDS011;31365;48.858;8.530;2023-11-19T03:25:45;1.47;;;1.47;;
45650;SDS011;31365;48.858;8.530;2023-11-19T03:28:14;1.63;;;1.63;;
45650;SDS011;31365;48.858;8.530;2023-11-19T03:30:42;1.60;;;1.60;;
45650;SDS011;31365;48.858;8.530;2023-11-19T03:33:10;1.77;;;1.70;;
45650;SDS011;31365;48.858;8.530;2023-11-19T03:35:38;1.40;;;1.40;;
45650;SDS011;31365;48.858;8.530;2023-11-19T03:38:09;1.40;;;1.40;;
45650;SDS011;31365;48.858;8.530;2023-11-19T03:40:37;1.50;;;1.50;;
45650;SDS011;31365;48.858;8.530;2023-11-19T03:43:05;1.50;;;1.40;;
45650;SDS011;31365;48.858;8.530;2023-11-19T03:45:33;1.40;;;1.40;;
45650;SDS011;31365;48.858;8.530;2023-11-19T03:48:03;1.60;;;1.60;;
45650;SDS011;31365;48.858;8.530;2023-11-19T03:50:32;1.60;;;1.60;;
45650;SDS011;31365;48.858;8.530;2023-11-19T03:53:00;2.03;;;1.87;;
45650;SDS011;31365;48.858;8.530;2023-11-19T03:55:30;1.50;;;1.50;;
45650;SDS011;31365;48.858;8.530;2023-11-19T03:57:59;1.40;;;1.40;;
45650;SDS011;31365;48.858;8.530;2023-11-19T04:00:27;1.50;;;1.50;;
45650;SDS011;31365;48.858;8.530;2023-11-19T04:02:55;1.60;;;1.50;;
45650;SDS011;31365;48.858;8.530;2023-11-19T04:05:24;1.50;;;1.50;;
45650;SDS011;31365;48.858;8.530;2023-11-19T04:07:52;1.60;;;1.60;;
45650;SDS011;31365;48.858;8.530;2023-11-19T04:10:20;1.90;;;1.73;;
45650;SDS011;31365;48.858;8.530;2023-11-19T04:12:50;1.73;;;1.70;;
45650;SDS011;31365;48.858;8.530;2023-11-19T04:15:18;1.60;;;1.60;;
45650;SDS011;31365;48.858;8.530;2023-11-19T04:17:46;1.70;;;1.70;;
45650;SDS011;31365;48.858;8.530;2023-11-19T04:20:15;1.70;;;1.70;;
45650;SDS011;31365;48.858;8.530;2023-11-19T04:22:43;1.80;;;1.70;;
45650;SDS011;31365;48.858;8.530;2023-11-19T04:25:11;1.90;;;1.80;;
45650;SDS011;31365;48.858;8.530;2023-11-19T04:27:40;2.00;;;1.90;;
45650;SDS011;31365;48.858;8.530;2023-11-19T04:30:10;1.90;;;1.80;;
45650;SDS011;31365;48.858;8.530;2023-11-19T04:32:40;1.87;;;1.80;;
45650;SDS011;31365;48.858;8.530;2023-11-19T04:35:08;1.90;;;1.80;;
45650;SDS011;31365;48.858;8.530;2023-11-19T04:37:36;1.90;;;1.80;;
45650;SDS011;31365;48.858;8.530;2023-11-19T04:40:05;1.70;;;1.60;;
45650;SDS011;31365;48.858;8.530;2023-11-19T04:42:35;1.50;;;1.50;;
45650;SDS011;31365;48.858;8.530;2023-11-19T04:45:03;1.70;;;1.70;;
45650;SDS011;31365;48.858;8.530;2023-11-19T04:47:35;1.90;;;1.80;;
45650;SDS011;31365;48.858;8.530;2023-11-19T04:50:03;1.50;;;1.50;;
45650;SDS011;31365;48.858;8.530;2023-11-19T04:52:31;1.80;;;1.70;;
45650;SDS011;31365;48.858;8.530;2023-11-19T04:55:00;1.87;;;1.77;;
45650;SDS011;31365;48.858;8.530;2023-11-19T04:57:28;1.80;;;1.70;;
45650;SDS011;31365;48.858;8.530;2023-11-19T04:59:56;1.60;;;1.60;;
45650;SDS011;31365;48.858;8.530;2023-11-19T05:02:24;1.60;;;1.50;;
45650;SDS011;31365;48.858;8.530;2023-11-19T05:04:53;1.50;;;1.50;;
45650;SDS011;31365;48.858;8.530;2023-11-19T05:07:22;1.50;;;1.50;;
45650;SDS011;31365;48.858;8.530;2023-11-19T05:09:50;1.40;;;1.40;;
45650;SDS011;31365;48.858;8.530;2023-11-19T05:12:18;1.57;;;1.50;;
45650;SDS011;31365;48.858;8.530;2023-11-19T05:14:46;1.80;;;1.70;;
45650;SDS011;31365;48.858;8.530;2023-11-19T05:17:17;1.70;;;1.60;;
45650;SDS011;31365;48.858;8.530;2023-11-19T05:19:45;1.57;;;1.53;;
45650;SDS011;31365;48.858;8.530;2023-11-19T05:22:16;1.60;;;1.50;;
45650;SDS011;31365;48.858;8.530;2023-11-19T05:24:47;1.60;;;1.50;;
45650;SDS011;31365;48.858;8.530;2023-11-19T05:27:16;1.70;;;1.60;;
45650;SDS011;31365;48.858;8.530;2023-11-19T05:29:44;2.17;;;1.70;;
45650;SDS011;31365;48.858;8.530;2023-11-19T05:32:12;1.40;;;1.40;;
45650;SDS011;31365;48.858;8.530;2023-11-19T05:34:41;1.63;;;1.53;;
45650;SDS011;31365;48.858;8.530;2023-11-19T05:37:12;1.60;;;1.50;;
45650;SDS011;31365;48.858;8.530;2023-11-19T05:39:42;2.20;;;1.60;;
45650;SDS011;31365;48.858;8.530;2023-11-19T05:42:11;1.40;;;1.40;;
45650;SDS011;31365;48.858;8.530;2023-11-19T05:44:39;1.83;;;1.73;;
45650;SDS011;31365;48.858;8.530;2023-11-19T05:47:08;1.83;;;1.70;;
45650;SDS011;31365;48.858;8.530;2023-11-19T05:49:36;1.90;;;1.60;;
45650;SDS011;31365;48.858;8.530;2023-11-19T05:52:05;1.90;;;1.80;;
45650;SDS011;31365;48.858;8.530;2023-11-19T05:54:34;1.53;;;1.30;;
45650;SDS011;31365;48.858;8.530;2023-11-19T05:57:05;1.50;;;1.50;;
45650;SDS011;31365;48.858;8.530;2023-11-19T05:59:37;1.50;;;1.50;;
45650;SDS011;31365;48.858;8.530;2023-11-19T06:02:05;1.77;;;1.67;;
45650;SDS011;31365;48.858;8.530;2023-11-19T06:04:33;1.60;;;1.50;;
45650;SDS011;31365;48.858;8.530;2023-11-19T06:07:01;1.60;;;1.60;;
45650;SDS011;31365;48.858;8.530;2023-11-19T06:09:30;1.67;;;1.67;;
45650;SDS011;31365;48.858;8.530;2023-11-19T06:12:00;2.20;;;2.10;;
45650;SDS011;31365;48.858;8.530;2023-11-19T06:14:31;1.10;;;1.10;;
45650;SDS011;31365;48.858;8.530;2023-11-19T06:16:59;1.00;;;1.00;;
45650;SDS011;31365;48.858;8.530;2023-11-19T06:19:27;1.10;;;1.10;;
45650;SDS011;31365;48.858;8.530;2023-11-19T06:21:56;2.30;;;2.20;;
45650;SDS011;31365;48.858;8.530;2023-11-19T06:24:24;1.80;;;1.70;;
45650;SDS011;31365;48.858;8.530;2023-11-19T06:26:52;1.50;;;1.40;;
45650;SDS011;31365;48.858;8.530;2023-11-19T06:29:21;1.30;;;1.30;;
45650;SDS011;31365;48.858;8.530;2023-11-19T06:31:50;1.47;;;1.40;;
45650;SDS011;31365;48.858;8.530;2023-11-19T06:34:18;1.70;;;1.60;;
45650;SDS011;31365;48.858;8.530;2023-11-19T06:36:46;1.73;;;1.63;;
45650;SDS011;31365;48.858;8.530;2023-11-19T06:39:15;1.90;;;1.80;;
45650;SDS011;31365;48.858;8.530;2023-11-19T06:41:45;1.80;;;1.70;;
45650;SDS011;31365;48.858;8.530;2023-11-19T06:44:13;1.70;;;1.60;;
45650;SDS011;31365;48.858;8.530;2023-11-19T06:46:41;1.60;;;1.50;;
45650;SDS011;31365;48.858;8.530;2023-11-19T06:49:11;1.83;;;1.60;;
45650;SDS011;31365;48.858;8.530;2023-11-19T06:51:41;1.63;;;1.53;;
45650;SDS011;31365;48.858;8.530;2023-11-19T06:54:11;1.60;;;1.50;;
45650;SDS011;31365;48.858;8.530;2023-11-19T06:56:39;1.60;;;1.50;;
45650;SDS011;31365;48.858;8.530;2023-11-19T06:59:08;1.70;;;1.60;;
45650;SDS011;31365;48.858;8.530;2023-11-19T07:01:37;1.60;;;1.50;;
45650;SDS011;31365;48.858;8.530;2023-11-19T07:04:06;1.80;;;1.70;;
45650;SDS011;31365;48.858;8.530;2023-11-19T07:06:37;1.60;;;1.60;;
45650;SDS011;31365;48.858;8.530;2023-11-19T07:09:05;1.60;;;1.50;;
45650;SDS011;31365;48.858;8.530;2023-11-19T07:11:37;2.70;;;1.50;;
45650;SDS011;31365;48.858;8.530;2023-11-19T07:14:06;1.43;;;1.40;;
45650;SDS011;31365;48.858;8.530;2023-11-19T07:16:35;2.97;;;1.67;;
45650;SDS011;31365;48.858;8.530;2023-11-19T07:19:04;2.97;;;1.70;;
45650;SDS011;31365;48.858;8.530;2023-11-19T07:21:32;2.80;;;1.70;;
45650;SDS011;31365;48.858;8.530;2023-11-19T07:24:04;1.50;;;1.50;;
45650;SDS011;31365;48.858;8.530;2023-11-19T07:26:34;1.50;;;1.40;;
45650;SDS011;31365;48.858;8.530;2023-11-19T07:29:04;1.63;;;1.50;;
45650;SDS011;31365;48.858;8.530;2023-11-19T07:31:34;1.43;;;1.43;;
45650;SDS011;31365;48.858;8.530;2023-11-19T07:34:03;1.70;;;1.60;;
45650;SDS011;31365;48.858;8.530;2023-11-19T07:36:32;1.93;;;1.60;;
45650;SDS011;31365;48.858;8.530;2023-11-19T07:39:00;1.67;;;1.40;;
45650;SDS011;31365;48.858;8.530;2023-11-19T07:41:30;1.60;;;1.30;;
45650;SDS011;31365;48.858;8.530;2023-11-19T07:44:19;2.90;;;2.70;;
45650;SDS011;31365;48.858;8.530;2023-11-19T07:46:48;3.43;;;1.90;;
45650;SDS011;31365;48.858;8.530;2023-11-19T07:49:16;2.20;;;2.00;;
45650;SDS011;31365;48.858;8.530;2023-11-19T07:51:45;1.80;;;1.70;;
45650;SDS011;31365;48.858;8.530;2023-11-19T07:54:14;1.70;;;1.60;;
45650;SDS011;31365;48.858;8.530;2023-11-19T07:56:43;1.70;;;1.60;;
45650;SDS011;31365;48.858;8.530;2023-11-19T07:59:11;1.57;;;1.50;;
45650;SDS011;31365;48.858;8.530;2023-11-19T08:01:39;8.33;;;2.17;;
45650;SDS011;31365;48.858;8.530;2023-11-19T08:04:08;2.13;;;1.67;;
45650;SDS011;31365;48.858;8.530;2023-11-19T08:06:36;1.70;;;1.60;;
45650;SDS011;31365;48.858;8.530;2023-11-19T08:09:05;1.80;;;1.70;;
45650;SDS011;31365;48.858;8.530;2023-11-19T08:11:40;2.40;;;2.20;;
45650;SDS011;31365;48.858;8.530;2023-11-19T08:14:09;2.83;;;1.60;;
45650;SDS011;31365;48.858;8.530;2023-11-19T08:16:38;2.00;;;1.50;;
45650;SDS011;31365;48.858;8.530;2023-11-19T08:19:07;2.70;;;2.50;;
45650;SDS011;31365;48.858;8.530;2023-11-19T08:21:36;2.67;;;2.50;;
45650;SDS011;31365;48.858;8.530;2023-11-19T08:24:04;2.47;;;2.03;;
45650;SDS011;31365;48.858;8.530;2023-11-19T08:26:32;1.60;;;1.60;;
45650;SDS011;31365;48.858;8.530;2023-11-19T08:29:01;2.53;;;2.10;;
45650;SDS011;31365;48.858;8.530;2023-11-19T08:31:33;2.97;;;2.00;;
45650;SDS011;31365;48.858;8.530;2023-11-19T08:34:04;1.80;;;1.70;;
45650;SDS011;31365;48.858;8.530;2023-11-19T08:36:36;3.20;;;2.83;;
45650;SDS011;31365;48.858;8.530;2023-11-19T08:39:05;2.10;;;1.90;;
45650;SDS011;31365;48.858;8.530;2023-11-19T08:41:35;4.73;;;4.17;;
45650;SDS011;31365;48.858;8.530;2023-11-19T08:44:04;7.20;;;6.50;;
45650;SDS011;31365;48.858;8.530;2023-11-19T08:46:35;7.90;;;7.10;;
45650;SDS011;31365;48.858;8.530;2023-11-19T08:49:03;7.60;;;6.80;;
45650;SDS011;31365;48.858;8.530;2023-11-19T08:51:32;3.70;;;3.40;;
45650;SDS011;31365;48.858;8.530;2023-11-19T08:54:00;3.50;;;3.17;;
45650;SDS011;31365;48.858;8.530;2023-11-19T08:56:28;3.10;;;2.73;;
45650;SDS011;31365;48.858;8.530;2023-11-19T08:58:59;2.67;;;2.37;;
45650;SDS011;31365;48.858;8.530;2023-11-19T09:01:27;2.57;;;2.37;;
45650;SDS011;31365;48.858;8.530;2023-11-19T09:03:58;3.63;;;2.80;;
45650;SDS011;31365;48.858;8.530;2023-11-19T09:06:26;5.30;;;4.80;;
45650;SDS011;31365;48.858;8.530;2023-11-19T09:08:55;4.43;;;4.03;;
45650;SDS011;31365;48.858;8.530;2023-11-19T09:11:29;4.40;;;3.60;;
45650;SDS011;31365;48.858;8.530;2023-11-19T09:13:57;2.10;;;1.80;;
45650;SDS011;31365;48.858;8.530;2023-11-19T09:16:25;2.73;;;1.70;;
45650;SDS011;31365;48.858;8.530;2023-11-19T09:18:53;1.50;;;1.40;;
45650;SDS011;31365;48.858;8.530;2023-11-19T09:21:23;1.77;;;1.67;;
45650;SDS011;31365;48.858;8.530;2023-11-19T09:23:50;1.70;;;1.60;;
45650;SDS011;31365;48.858;8.530;2023-11-19T09:26:20;1.63;;;1.60;;
45650;SDS011;31365;48.858;8.530;2023-11-19T09:28:48;1.90;;;1.80;;
45650;SDS011;31365;48.858;8.530;2023-11-19T09:31:17;1.90;;;1.80;;
45650;SDS011;31365;48.858;8.530;2023-11-19T09:33:46;2.13;;;2.03;;
45650;SDS011;31365;48.858;8.530;2023-11-19T09:36:14;2.30;;;2.10;;
45650;SDS011;31365;48.858;8.530;2023-11-19T09:38:44;2.00;;;1.90;;
45650;SDS011;31365;48.858;8.530;2023-11-19T09:41:12;2.73;;;2.10;;
45650;SDS011;31365;48.858;8.530;2023-11-19T09:43:41;2.10;;;1.90;;
45650;SDS011;31365;48.858;8.530;2023-11-19T09:46:10;2.93;;;2.67;;
45650;SDS011;31365;48.858;8.530;2023-11-19T09:48:40;2.90;;;2.37;;
45650;SDS011;31365;48.858;8.530;2023-11-19T09:51:10;2.50;;;2.30;;
45650;SDS011;31365;48.858;8.530;2023-11-19T09:53:39;2.03;;;1.83;;
45650;SDS011;31365;48.858;8.530;2023-11-19T09:56:09;2.27;;;2.17;;
45650;SDS011;31365;48.858;8.530;2023-11-19T09:58:40;1.93;;;1.63;;
45650;SDS011;31365;48.858;8.530;2023-11-19T10:01:09;2.60;;;2.00;;
45650;SDS011;31365;48.858;8.530;2023-11-19T10:03:41;1.87;;;1.77;;
45650;SDS011;31365;48.858;8.530;2023-11-19T10:06:11;2.33;;;2.17;;
45650;SDS011;31365;48.858;8.530;2023-11-19T10:08:39;2.50;;;2.30;;
45650;SDS011;31365;48.858;8.530;2023-11-19T10:11:11;2.33;;;2.00;;
45650;SDS011;31365;48.858;8.530;2023-11-19T10:13:40;2.13;;;2.03;;
45650;SDS011;31365;48.858;8.530;2023-11-19T10:16:09;2.33;;;2.13;;
45650;SDS011;31365;48.858;8.530;2023-11-19T10:18:42;2.27;;;1.80;;
45650;SDS011;31365;48.858;8.530;2023-11-19T10:21:12;1.97;;;1.80;;
45650;SDS011;31365;48.858;8.530;2023-11-19T10:23:47;2.23;;;1.90;;
45650;SDS011;31365;48.858;8.530;2023-11-19T10:26:18;4.20;;;2.30;;
45650;SDS011;31365;48.858;8.530;2023-11-19T10:28:47;2.60;;;2.40;;
45650;SDS011;31365;48.858;8.530;2023-11-19T10:31:15;2.27;;;2.03;;
45650;SDS011;31365;48.858;8.530;2023-11-19T10:33:44;4.47;;;2.20;;
45650;SDS011;31365;48.858;8.530;2023-11-19T10:36:14;2.17;;;2.03;;
45650;SDS011;31365;48.858;8.530;2023-11-19T10:38:51;2.30;;;2.10;;
45650;SDS011;31365;48.858;8.530;2023-11-19T10:41:30;2.67;;;2.47;;
45650;SDS011;31365;48.858;8.530;2023-11-19T10:43:59;2.30;;;2.10;;
45650;SDS011;31365;48.858;8.530;2023-11-19T10:46:37;2.53;;;2.13;;
45650;SDS011;31365;48.858;8.530;2023-11-19T10:49:07;2.70;;;2.50;;
45650;SDS011;31365;48.858;8.530;2023-11-19T10:51:36;3.17;;;2.87;;
45650;SDS011;31365;48.858;8.530;2023-11-19T10:54:11;3.33;;;3.10;;
45650;SDS011;31365;48.858;8.530;2023-11-19T10:56:43;3.10;;;2.90;;
45650;SDS011;31365;48.858;8.530;2023-11-19T10:59:16;5.27;;;4.53;;
45650;SDS011;31365;48.858;8.530;2023-11-19T11:01:50;3.97;;;3.53;;
45650;SDS011;31365;48.858;8.530;2023-11-19T11:04:22;4.27;;;3.97;;
45650;SDS011;31365;48.858;8.530;2023-11-19T11:06:53;3.20;;;3.00;;
45650;SDS011;31365;48.858;8.530;2023-11-19T11:09:26;3.17;;;2.93;;
45650;SDS011;31365;48.858;8.530;2023-11-19T11:11:56;3.27;;;3.00;;
45650;SDS011;31365;48.858;8.530;2023-11-19T11:14:26;4.30;;;3.30;;
45650;SDS011;31365;48.858;8.530;2023-11-19T11:16:55;3.47;;;3.17;;
45650;SDS011;31365;48.858;8.530;2023-11-19T11:19:25;3.60;;;3.30;;
45650;SDS011;31365;48.858;8.530;2023-11-19T11:21:53;4.10;;;3.80;;
45650;SDS011;31365;48.858;8.530;2023-11-19T11:27:43;2.70;;;2.50;;
45650;SDS011;31365;48.858;8.530;2023-11-19T11:30:29;5.07;;;3.63;;
45650;SDS011;31365;48.858;8.530;2023-11-19T11:33:06;3.10;;;2.90;;
45650;SDS011;31365;48.858;8.530;2023-11-19T11:35:50;3.03;;;2.83;;
45650;SDS011;31365;48.858;8.530;2023-11-19T11:38:22;3.03;;;2.85;;
45650;SDS011;31365;48.858;8.530;2023-11-19T11:43:50;5.80;;;5.23;;
45650;SDS011;31365;48.858;8.530;2023-11-19T11:49:24;4.20;;;3.90;;
45650;SDS011;31365;48.858;8.530;2023-11-19T11:51:58;3.05;;;2.85;;
45650;SDS011;31365;48.858;8.530;2023-11-19T11:54:31;3.75;;;3.47;;
45650;SDS011;31365;48.858;8.530;2023-11-19T11:57:02;3.00;;;2.80;;
45650;SDS011;31365;48.858;8.530;2023-11-19T11:59:37;2.95;;;2.50;;
45650;SDS011;31365;48.858;8.530;2023-11-19T12:02:13;2.65;;;2.55;;
45650;SDS011;31365;48.858;8.530;2023-11-19T12:04:43;3.88;;;2.80;;
45650;SDS011;31365;48.858;8.530;2023-11-19T12:07:16;3.30;;;3.00;;
45650;SDS011;31365;48.858;8.530;2023-11-19T12:09:48;2.80;;;2.60;;
45650;SDS011;31365;48.858;8.530;2023-11-19T12:12:21;2.88;;;2.67;;
45650;SDS011;31365;48.858;8.530;2023-11-19T12:15:04;2.72;;;2.53;;
45650;SDS011;31365;48.858;8.530;2023-11-19T12:17:43;2.05;;;1.95;;
45650;SDS011;31365;48.858;8.530;2023-11-19T12:20:17;2.57;;;2.47;;
45650;SDS011;31365;48.858;8.530;2023-11-19T12:22:49;2.63;;;2.50;;
45650;SDS011;31365;48.858;8.530;2023-11-19T12:25:18;2.90;;;2.70;;
45650;SDS011;31365;48.858;8.530;2023-11-19T12:27:48;3.53;;;2.43;;
45650;SDS011;31365;48.858;8.530;2023-11-19T12:30:19;2.70;;;2.60;;
45650;SDS011;31365;48.858;8.530;2023-11-19T12:32:50;2.70;;;2.50;;
45650;SDS011;31365;48.858;8.530;2023-11-19T12:35:20;3.50;;;3.20;;
45650;SDS011;31365;48.858;8.530;2023-11-19T12:37:48;2.63;;;2.40;;
45650;SDS011;31365;48.858;8.530;2023-11-19T12:40:17;2.90;;;2.70;;
45650;SDS011;31365;48.858;8.530;2023-11-19T12:42:46;3.20;;;2.90;;
45650;SDS011;31365;48.858;8.530;2023-11-19T12:45:15;2.83;;;2.50;;
45650;SDS011;31365;48.858;8.530;2023-11-19T12:47:45;3.10;;;2.90;;
45650;SDS011;31365;48.858;8.530;2023-11-19T12:50:14;3.57;;;2.80;;
45650;SDS011;31365;48.858;8.530;2023-11-19T12:52:47;5.83;;;4.70;;
45650;SDS011;31365;48.858;8.530;2023-11-19T12:55:24;3.10;;;2.90;;
45650;SDS011;31365;48.858;8.530;2023-11-19T12:57:55;3.03;;;2.77;;
45650;SDS011;31365;48.858;8.530;2023-11-19T13:00:26;2.70;;;2.50;;
45650;SDS011;31365;48.858;8.530;2023-11-19T13:02:56;3.27;;;3.07;;
45650;SDS011;31365;48.858;8.530;2023-11-19T13:05:26;3.77;;;2.70;;
45650;SDS011;31365;48.858;8.530;2023-11-19T13:07:58;2.57;;;2.47;;
45650;SDS011;31365;48.858;8.530;2023-11-19T13:10:28;2.83;;;2.63;;
45650;SDS011;31365;48.858;8.530;2023-11-19T13:13:00;3.17;;;2.87;;
45650;SDS011;31365;48.858;8.530;2023-11-19T13:15:32;2.57;;;2.40;;
45650;SDS011;31365;48.858;8.530;2023-11-19T13:18:02;3.33;;;3.00;;
45650;SDS011;31365;48.858;8.530;2023-11-19T13:20:30;6.03;;;5.20;;
45650;SDS011;31365;48.858;8.530;2023-11-19T13:22:59;3.17;;;2.90;;
45650;SDS011;31365;48.858;8.530;2023-11-19T13:25:28;4.00;;;3.70;;
45650;SDS011;31365;48.858;8.530;2023-11-19T13:27:57;3.90;;;2.83;;
45650;SDS011;31365;48.858;8.530;2023-11-19T13:30:25;3.00;;;2.70;;
45650;SDS011;31365;48.858;8.530;2023-11-19T13:32:54;3.00;;;2.80;;
45650;SDS011;31365;48.858;8.530;2023-11-19T13:35:24;3.00;;;2.80;;
45650;SDS011;31365;48.858;8.530;2023-11-19T13:37:54;2.70;;;2.50;;
45650;SDS011;31365;48.858;8.530;2023-11-19T13:40:22;2.77;;;2.57;;
45650;SDS011;31365;48.858;8.530;2023-11-19T13:42:51;3.30;;;2.70;;
45650;SDS011;31365;48.858;8.530;2023-11-19T13:45:20;2.93;;;2.60;;
45650;SDS011;31365;48.858;8.530;2023-11-19T13:47:48;4.30;;;3.20;;
45650;SDS011;31365;48.858;8.530;2023-11-19T13:50:16;2.80;;;2.60;;
45650;SDS011;31365;48.858;8.530;2023-11-19T13:52:46;2.57;;;2.37;;
45650;SDS011;31365;48.858;8.530;2023-11-19T13:55:14;3.77;;;3.47;;
45650;SDS011;31365;48.858;8.530;2023-11-19T13:57:42;3.17;;;2.97;;
45650;SDS011;31365;48.858;8.530;2023-11-19T14:00:11;4.63;;;3.80;;
45650;SDS011;31365;48.858;8.530;2023-11-19T14:02:40;3.20;;;2.90;;
45650;SDS011;31365;48.858;8.530;2023-11-19T14:05:08;2.47;;;2.27;;
45650;SDS011;31365;48.858;8.530;2023-11-19T14:07:38;3.37;;;3.07;;
45650;SDS011;31365;48.858;8.530;2023-11-19T14:10:08;3.03;;;2.83;;
45650;SDS011;31365;48.858;8.530;2023-11-19T14:12:37;2.30;;;2.20;;
45650;SDS011;31365;48.858;8.530;2023-11-19T14:15:06;2.57;;;2.37;;
45650;SDS011;31365;48.858;8.530;2023-11-19T14:17:36;2.87;;;2.67;;
45650;SDS011;31365;48.858;8.530;2023-11-19T14:20:04;2.90;;;2.70;;
45650;SDS011;31365;48.858;8.530;2023-11-19T14:22:39;3.37;;;3.00;;
45650;SDS011;31365;48.858;8.530;2023-11-19T14:25:09;9.50;;;7.17;;
45650;SDS011;31365;48.858;8.530;2023-11-19T14:27:38;4.13;;;3.17;;
45650;SDS011;31365;48.858;8.530;2023-11-19T14:30:07;4.83;;;4.30;;
45650;SDS011;31365;48.858;8.530;2023-11-19T14:32:37;5.93;;;3.23;;
45650;SDS011;31365;48.858;8.530;2023-11-19T14:35:06;3.00;;;2.73;;
45650;SDS011;31365;48.858;8.530;2023-11-19T14:37:35;2.90;;;2.70;;
45650;SDS011;31365;48.858;8.530;2023-11-19T14:40:03;4.00;;;2.83;;
45650;SDS011;31365;48.858;8.530;2023-11-19T14:42:34;2.57;;;2.40;;
45650;SDS011;31365;48.858;8.530;2023-11-19T14:45:03;3.00;;;2.80;;
45650;SDS011;31365;48.858;8.530;2023-11-19T14:47:32;3.00;;;2.70;;
45650;SDS011;31365;48.858;8.530;2023-11-19T14:50:01;2.93;;;2.73;;
45650;SDS011;31365;48.858;8.530;2023-11-19T14:52:29;3.10;;;2.63;;
45650;SDS011;31365;48.858;8.530;2023-11-19T14:54:58;3.00;;;2.80;;
45650;SDS011;31365;48.858;8.530;2023-11-19T14:57:26;4.93;;;4.53;;
45650;SDS011;31365;48.858;8.530;2023-11-19T14:59:56;4.03;;;3.73;;
45650;SDS011;31365;48.858;8.530;2023-11-19T15:02:24;7.50;;;6.83;;
45650;SDS011;31365;48.858;8.530;2023-11-19T15:04:52;3.73;;;3.43;;
45650;SDS011;31365;48.858;8.530;2023-11-19T15:07:20;4.10;;;3.70;;
45650;SDS011;31365;48.858;8.530;2023-11-19T15:09:49;3.97;;;3.20;;
45650;SDS011;31365;48.858;8.530;2023-11-19T15:12:17;2.10;;;2.00;;
45650;SDS011;31365;48.858;8.530;2023-11-19T15:14:46;2.10;;;2.00;;